sensor_id;sensor_type;location;lat;lon;timestamp;P1;durP1;ratioP1;P2;durP2;ratioP2
22715;SDS011;11525;51.152;4.456;2023-03-01T00:02:07;14.80;;;11.35;;
22715;SDS011;11525;51.152;4.456;2023-03-01T00:04:32;13.30;;;11.18;;
22715;SDS011;11525;51.152;4.456;2023-03-01T00:06:58;12.98;;;11.13;;
22715;SDS011;11525;51.152;4.456;2023-03-01T00:09:24;17.23;;;11.65;;
22715;SDS011;11525;51.152;4.456;2023-03-01T00:11:50;13.25;;;11.05;;
22715;SDS011;11525;51.152;4.456;2023-03-01T00:14:15;16.63;;;12.23;;
22715;SDS011;11525;51.152;4.456;2023-03-01T00:16:42;14.30;;;11.40;;
22715;SDS011;11525;51.152;4.456;2023-03-01T00:19:12;15.68;;;12.13;;
22715;SDS011;11525;51.152;4.456;2023-03-01T00:21:40;12.80;;;10.98;;
22715;SDS011;11525;51.152;4.456;2023-03-01T00:24:06;12.43;;;11.13;;
22715;SDS011;11525;51.152;4.456;2023-03-01T00:26:33;13.43;;;11.27;;
22715;SDS011;11525;51.152;4.456;2023-03-01T00:28:59;16.27;;;11.25;;
22715;SDS011;11525;51.152;4.456;2023-03-01T00:31:27;16.25;;;11.32;;
22715;SDS011;11525;51.152;4.456;2023-03-01T00:33:58;17.10;;;12.32;;
22715;SDS011;11525;51.152;4.456;2023-03-01T00:36:27;12.50;;;11.13;;
22715;SDS011;11525;51.152;4.456;2023-03-01T00:38:55;19.98;;;11.27;;
22715;SDS011;11525;51.152;4.456;2023-03-01T00:41:21;12.30;;;10.63;;
22715;SDS011;11525;51.152;4.456;2023-03-01T00:43:48;14.80;;;11.38;;
22715;SDS011;11525;51.152;4.456;2023-03-01T00:46:16;14.63;;;12.18;;
22715;SDS011;11525;51.152;4.456;2023-03-01T00:48:44;15.88;;;11.50;;
22715;SDS011;11525;51.152;4.456;2023-03-01T00:51:11;15.75;;;11.70;;
22715;SDS011;11525;51.152;4.456;2023-03-01T00:53:45;16.15;;;12.38;;
22715;SDS011;11525;51.152;4.456;2023-03-01T00:56:12;13.32;;;10.93;;
22715;SDS011;11525;51.152;4.456;2023-03-01T00:58:39;17.10;;;11.38;;
22715;SDS011;11525;51.152;4.456;2023-03-01T01:01:09;14.70;;;11.15;;
22715;SDS011;11525;51.152;4.456;2023-03-01T01:08:49;14.30;;;11.00;;
22715;SDS011;11525;51.152;4.456;2023-03-01T01:11:16;15.93;;;11.88;;
22715;SDS011;11525;51.152;4.456;2023-03-01T01:13:43;16.55;;;11.68;;
22715;SDS011;11525;51.152;4.456;2023-03-01T01:16:11;15.13;;;12.25;;
22715;SDS011;11525;51.152;4.456;2023-03-01T01:18:37;18.23;;;11.90;;
22715;SDS011;11525;51.152;4.456;2023-03-01T01:21:04;14.63;;;11.57;;
22715;SDS011;11525;51.152;4.456;2023-03-01T01:23:35;20.30;;;12.00;;
22715;SDS011;11525;51.152;4.456;2023-03-01T01:26:06;14.13;;;11.80;;
22715;SDS011;11525;51.152;4.456;2023-03-01T01:28:33;15.52;;;11.82;;
22715;SDS011;11525;51.152;4.456;2023-03-01T01:30:59;16.50;;;11.57;;
22715;SDS011;11525;51.152;4.456;2023-03-01T01:33:25;15.07;;;12.25;;
22715;SDS011;11525;51.152;4.456;2023-03-01T01:35:51;17.27;;;12.48;;
22715;SDS011;11525;51.152;4.456;2023-03-01T01:38:18;14.40;;;11.00;;
22715;SDS011;11525;51.152;4.456;2023-03-01T01:40:45;14.05;;;10.95;;
22715;SDS011;11525;51.152;4.456;2023-03-01T01:43:44;16.38;;;12.88;;
22715;SDS011;11525;51.152;4.456;2023-03-01T01:48:44;13.25;;;11.35;;
22715;SDS011;11525;51.152;4.456;2023-03-01T01:51:15;14.82;;;11.80;;
22715;SDS011;11525;51.152;4.456;2023-03-01T01:53:45;17.13;;;12.30;;
22715;SDS011;11525;51.152;4.456;2023-03-01T01:56:16;14.95;;;11.07;;
22715;SDS011;11525;51.152;4.456;2023-03-01T01:58:45;15.13;;;11.73;;
22715;SDS011;11525;51.152;4.456;2023-03-01T02:01:12;15.68;;;11.43;;
22715;SDS011;11525;51.152;4.456;2023-03-01T02:03:39;15.38;;;11.75;;
22715;SDS011;11525;51.152;4.456;2023-03-01T02:08:47;16.08;;;11.85;;
22715;SDS011;11525;51.152;4.456;2023-03-01T02:11:14;13.65;;;11.35;;
22715;SDS011;11525;51.152;4.456;2023-03-01T02:13:41;17.05;;;11.30;;
22715;SDS011;11525;51.152;4.456;2023-03-01T02:16:11;15.10;;;11.30;;
22715;SDS011;11525;51.152;4.456;2023-03-01T02:18:39;16.33;;;11.90;;
22715;SDS011;11525;51.152;4.456;2023-03-01T02:21:17;20.13;;;12.23;;
22715;SDS011;11525;51.152;4.456;2023-03-01T02:24:12;15.27;;;11.55;;
22715;SDS011;11525;51.152;4.456;2023-03-01T02:26:45;16.88;;;11.93;;
22715;SDS011;11525;51.152;4.456;2023-03-01T02:29:15;15.98;;;11.88;;
22715;SDS011;11525;51.152;4.456;2023-03-01T02:31:40;16.73;;;12.23;;
22715;SDS011;11525;51.152;4.456;2023-03-01T02:34:07;14.80;;;11.18;;
22715;SDS011;11525;51.152;4.456;2023-03-01T02:39:15;15.88;;;11.65;;
22715;SDS011;11525;51.152;4.456;2023-03-01T02:41:51;15.95;;;11.73;;
22715;SDS011;11525;51.152;4.456;2023-03-01T02:44:19;20.45;;;12.10;;
22715;SDS011;11525;51.152;4.456;2023-03-01T02:46:47;12.75;;;11.38;;
22715;SDS011;11525;51.152;4.456;2023-03-01T02:49:17;13.27;;;11.25;;
22715;SDS011;11525;51.152;4.456;2023-03-01T02:51:54;14.48;;;11.77;;
22715;SDS011;11525;51.152;4.456;2023-03-01T02:54:46;13.90;;;11.40;;
22715;SDS011;11525;51.152;4.456;2023-03-01T02:57:33;14.52;;;12.20;;
22715;SDS011;11525;51.152;4.456;2023-03-01T03:00:06;20.70;;;11.82;;
22715;SDS011;11525;51.152;4.456;2023-03-01T03:02:35;14.63;;;10.93;;
22715;SDS011;11525;51.152;4.456;2023-03-01T03:05:03;16.98;;;11.48;;
22715;SDS011;11525;51.152;4.456;2023-03-01T03:07:34;17.17;;;10.98;;
22715;SDS011;11525;51.152;4.456;2023-03-01T03:10:02;15.60;;;12.07;;
22715;SDS011;11525;51.152;4.456;2023-03-01T03:12:29;13.65;;;11.10;;
22715;SDS011;11525;51.152;4.456;2023-03-01T03:14:55;14.15;;;11.57;;
22715;SDS011;11525;51.152;4.456;2023-03-01T03:17:20;13.52;;;11.30;;
22715;SDS011;11525;51.152;4.456;2023-03-01T03:19:46;15.18;;;12.32;;
22715;SDS011;11525;51.152;4.456;2023-03-01T03:22:12;17.63;;;12.15;;
22715;SDS011;11525;51.152;4.456;2023-03-01T03:24:38;15.07;;;11.40;;
22715;SDS011;11525;51.152;4.456;2023-03-01T03:27:04;12.85;;;10.15;;
22715;SDS011;11525;51.152;4.456;2023-03-01T03:29:31;16.35;;;11.05;;
22715;SDS011;11525;51.152;4.456;2023-03-01T03:31:57;18.38;;;11.82;;
22715;SDS011;11525;51.152;4.456;2023-03-01T03:34:23;14.40;;;11.52;;
22715;SDS011;11525;51.152;4.456;2023-03-01T03:36:55;20.27;;;12.38;;
22715;SDS011;11525;51.152;4.456;2023-03-01T03:39:24;15.82;;;11.30;;
22715;SDS011;11525;51.152;4.456;2023-03-01T03:41:51;14.88;;;10.85;;
22715;SDS011;11525;51.152;4.456;2023-03-01T03:44:18;16.33;;;11.77;;
22715;SDS011;11525;51.152;4.456;2023-03-01T03:46:45;13.30;;;11.27;;
22715;SDS011;11525;51.152;4.456;2023-03-01T03:49:11;15.70;;;11.95;;
22715;SDS011;11525;51.152;4.456;2023-03-01T03:51:37;14.80;;;11.95;;
22715;SDS011;11525;51.152;4.456;2023-03-01T03:54:02;13.95;;;11.35;;
22715;SDS011;11525;51.152;4.456;2023-03-01T03:56:28;16.90;;;11.65;;
22715;SDS011;11525;51.152;4.456;2023-03-01T03:58:54;15.10;;;10.75;;
22715;SDS011;11525;51.152;4.456;2023-03-01T04:01:20;16.85;;;11.80;;
22715;SDS011;11525;51.152;4.456;2023-03-01T04:03:46;13.63;;;11.10;;
22715;SDS011;11525;51.152;4.456;2023-03-01T04:06:13;19.65;;;11.25;;
22715;SDS011;11525;51.152;4.456;2023-03-01T04:08:39;18.25;;;12.45;;
22715;SDS011;11525;51.152;4.456;2023-03-01T04:11:06;15.13;;;11.55;;
22715;SDS011;11525;51.152;4.456;2023-03-01T04:13:51;16.48;;;10.90;;
22715;SDS011;11525;51.152;4.456;2023-03-01T04:16:18;17.77;;;12.45;;
22715;SDS011;11525;51.152;4.456;2023-03-01T04:18:44;15.15;;;11.18;;
22715;SDS011;11525;51.152;4.456;2023-03-01T04:21:10;16.25;;;11.15;;
22715;SDS011;11525;51.152;4.456;2023-03-01T04:23:36;15.48;;;11.93;;
22715;SDS011;11525;51.152;4.456;2023-03-01T04:26:03;15.27;;;12.15;;
22715;SDS011;11525;51.152;4.456;2023-03-01T04:28:33;16.20;;;12.05;;
22715;SDS011;11525;51.152;4.456;2023-03-01T04:31:08;14.25;;;11.30;;
22715;SDS011;11525;51.152;4.456;2023-03-01T04:33:39;17.25;;;11.02;;
22715;SDS011;11525;51.152;4.456;2023-03-01T04:36:10;14.90;;;11.57;;
22715;SDS011;11525;51.152;4.456;2023-03-01T04:38:37;17.88;;;11.70;;
22715;SDS011;11525;51.152;4.456;2023-03-01T04:41:07;16.45;;;11.95;;
22715;SDS011;11525;51.152;4.456;2023-03-01T04:43:35;13.88;;;10.88;;
22715;SDS011;11525;51.152;4.456;2023-03-01T04:46:05;17.30;;;11.30;;
22715;SDS011;11525;51.152;4.456;2023-03-01T04:48:34;15.40;;;11.13;;
22715;SDS011;11525;51.152;4.456;2023-03-01T04:51:02;15.32;;;12.18;;
22715;SDS011;11525;51.152;4.456;2023-03-01T04:53:28;12.43;;;11.00;;
22715;SDS011;11525;51.152;4.456;2023-03-01T04:55:55;19.23;;;12.32;;
22715;SDS011;11525;51.152;4.456;2023-03-01T04:58:25;14.35;;;12.25;;
22715;SDS011;11525;51.152;4.456;2023-03-01T05:00:51;14.05;;;11.55;;
22715;SDS011;11525;51.152;4.456;2023-03-01T05:03:18;13.50;;;11.57;;
22715;SDS011;11525;51.152;4.456;2023-03-01T05:05:45;14.38;;;12.30;;
22715;SDS011;11525;51.152;4.456;2023-03-01T05:08:13;14.48;;;10.93;;
22715;SDS011;11525;51.152;4.456;2023-03-01T05:10:49;15.05;;;10.88;;
22715;SDS011;11525;51.152;4.456;2023-03-01T05:13:18;17.08;;;12.55;;
22715;SDS011;11525;51.152;4.456;2023-03-01T05:15:46;14.82;;;11.23;;
22715;SDS011;11525;51.152;4.456;2023-03-01T05:18:14;15.40;;;12.38;;
22715;SDS011;11525;51.152;4.456;2023-03-01T05:20:39;17.20;;;12.00;;
22715;SDS011;11525;51.152;4.456;2023-03-01T05:23:06;16.10;;;11.95;;
22715;SDS011;11525;51.152;4.456;2023-03-01T05:25:32;17.45;;;11.88;;
22715;SDS011;11525;51.152;4.456;2023-03-01T05:28:02;16.60;;;12.00;;
22715;SDS011;11525;51.152;4.456;2023-03-01T05:30:32;16.27;;;12.07;;
22715;SDS011;11525;51.152;4.456;2023-03-01T05:32:59;19.27;;;12.50;;
22715;SDS011;11525;51.152;4.456;2023-03-01T05:35:25;15.50;;;11.75;;
22715;SDS011;11525;51.152;4.456;2023-03-01T05:37:51;13.75;;;12.05;;
22715;SDS011;11525;51.152;4.456;2023-03-01T05:40:19;14.88;;;11.52;;
22715;SDS011;11525;51.152;4.456;2023-03-01T05:42:49;17.40;;;12.48;;
22715;SDS011;11525;51.152;4.456;2023-03-01T05:45:18;14.15;;;11.52;;
22715;SDS011;11525;51.152;4.456;2023-03-01T05:47:45;14.13;;;11.45;;
22715;SDS011;11525;51.152;4.456;2023-03-01T05:52:39;13.70;;;11.65;;
22715;SDS011;11525;51.152;4.456;2023-03-01T05:55:05;13.93;;;11.52;;
22715;SDS011;11525;51.152;4.456;2023-03-01T05:57:31;18.08;;;12.43;;
22715;SDS011;11525;51.152;4.456;2023-03-01T05:59:57;15.63;;;11.35;;
22715;SDS011;11525;51.152;4.456;2023-03-01T06:02:23;16.30;;;12.30;;
22715;SDS011;11525;51.152;4.456;2023-03-01T06:04:49;17.88;;;12.95;;
22715;SDS011;11525;51.152;4.456;2023-03-01T06:07:14;18.77;;;13.43;;
22715;SDS011;11525;51.152;4.456;2023-03-01T06:09:40;16.35;;;12.35;;
22715;SDS011;11525;51.152;4.456;2023-03-01T06:12:06;15.80;;;12.82;;
22715;SDS011;11525;51.152;4.456;2023-03-01T06:14:31;16.17;;;12.27;;
22715;SDS011;11525;51.152;4.456;2023-03-01T06:16:57;17.27;;;11.93;;
22715;SDS011;11525;51.152;4.456;2023-03-01T06:19:23;17.65;;;12.68;;
22715;SDS011;11525;51.152;4.456;2023-03-01T06:21:49;15.85;;;12.25;;
22715;SDS011;11525;51.152;4.456;2023-03-01T06:24:15;18.92;;;12.60;;
22715;SDS011;11525;51.152;4.456;2023-03-01T06:26:41;17.05;;;12.13;;
22715;SDS011;11525;51.152;4.456;2023-03-01T06:29:06;18.33;;;12.45;;
22715;SDS011;11525;51.152;4.456;2023-03-01T06:31:33;16.77;;;13.10;;
22715;SDS011;11525;51.152;4.456;2023-03-01T06:33:59;17.25;;;12.48;;
22715;SDS011;11525;51.152;4.456;2023-03-01T06:36:25;15.38;;;12.40;;
22715;SDS011;11525;51.152;4.456;2023-03-01T06:38:51;19.92;;;12.35;;
22715;SDS011;11525;51.152;4.456;2023-03-01T06:41:16;18.00;;;12.70;;
22715;SDS011;11525;51.152;4.456;2023-03-01T06:43:42;17.77;;;12.30;;
22715;SDS011;11525;51.152;4.456;2023-03-01T06:46:08;15.23;;;12.20;;
22715;SDS011;11525;51.152;4.456;2023-03-01T06:48:34;16.23;;;11.85;;
22715;SDS011;11525;51.152;4.456;2023-03-01T06:51:00;18.13;;;12.43;;
22715;SDS011;11525;51.152;4.456;2023-03-01T06:53:28;16.50;;;12.15;;
22715;SDS011;11525;51.152;4.456;2023-03-01T06:55:57;16.20;;;12.10;;
22715;SDS011;11525;51.152;4.456;2023-03-01T06:58:25;18.73;;;13.27;;
22715;SDS011;11525;51.152;4.456;2023-03-01T07:00:51;18.10;;;13.43;;
22715;SDS011;11525;51.152;4.456;2023-03-01T07:03:17;26.05;;;16.33;;
22715;SDS011;11525;51.152;4.456;2023-03-01T07:05:43;42.58;;;24.63;;
22715;SDS011;11525;51.152;4.456;2023-03-01T07:08:09;42.75;;;30.58;;
22715;SDS011;11525;51.152;4.456;2023-03-01T07:10:35;22.20;;;14.88;;
22715;SDS011;11525;51.152;4.456;2023-03-01T07:13:01;17.45;;;15.13;;
22715;SDS011;11525;51.152;4.456;2023-03-01T07:15:27;20.98;;;16.35;;
22715;SDS011;11525;51.152;4.456;2023-03-01T07:17:53;16.50;;;12.90;;
22715;SDS011;11525;51.152;4.456;2023-03-01T07:20:19;21.10;;;16.88;;
22715;SDS011;11525;51.152;4.456;2023-03-01T07:22:50;16.88;;;14.13;;
22715;SDS011;11525;51.152;4.456;2023-03-01T07:25:17;22.65;;;14.95;;
22715;SDS011;11525;51.152;4.456;2023-03-01T07:27:43;22.92;;;16.70;;
22715;SDS011;11525;51.152;4.456;2023-03-01T07:30:08;16.83;;;12.73;;
22715;SDS011;11525;51.152;4.456;2023-03-01T07:32:35;19.58;;;13.40;;
22715;SDS011;11525;51.152;4.456;2023-03-01T07:35:01;18.17;;;14.13;;
22715;SDS011;11525;51.152;4.456;2023-03-01T07:37:26;15.15;;;12.52;;
22715;SDS011;11525;51.152;4.456;2023-03-01T07:39:52;15.95;;;12.88;;
22715;SDS011;11525;51.152;4.456;2023-03-01T07:42:18;22.33;;;14.32;;
22715;SDS011;11525;51.152;4.456;2023-03-01T07:44:44;18.23;;;11.85;;
22715;SDS011;11525;51.152;4.456;2023-03-01T07:47:09;20.85;;;13.60;;
22715;SDS011;11525;51.152;4.456;2023-03-01T07:49:35;20.70;;;13.57;;
22715;SDS011;11525;51.152;4.456;2023-03-01T07:52:01;22.52;;;15.73;;
22715;SDS011;11525;51.152;4.456;2023-03-01T07:54:27;16.75;;;13.05;;
22715;SDS011;11525;51.152;4.456;2023-03-01T07:56:52;20.05;;;15.77;;
22715;SDS011;11525;51.152;4.456;2023-03-01T07:59:19;19.48;;;13.05;;
22715;SDS011;11525;51.152;4.456;2023-03-01T08:01:45;18.42;;;11.50;;
22715;SDS011;11525;51.152;4.456;2023-03-01T08:04:11;17.02;;;12.93;;
22715;SDS011;11525;51.152;4.456;2023-03-01T08:06:37;14.48;;;11.20;;
22715;SDS011;11525;51.152;4.456;2023-03-01T08:09:03;16.55;;;11.02;;
22715;SDS011;11525;51.152;4.456;2023-03-01T08:11:28;16.15;;;11.30;;
22715;SDS011;11525;51.152;4.456;2023-03-01T08:13:54;20.40;;;12.43;;
22715;SDS011;11525;51.152;4.456;2023-03-01T08:16:21;18.88;;;12.18;;
22715;SDS011;11525;51.152;4.456;2023-03-01T08:18:47;16.90;;;11.35;;
22715;SDS011;11525;51.152;4.456;2023-03-01T08:21:14;14.02;;;11.68;;
22715;SDS011;11525;51.152;4.456;2023-03-01T08:23:41;16.65;;;11.30;;
22715;SDS011;11525;51.152;4.456;2023-03-01T08:26:09;18.02;;;12.55;;
22715;SDS011;11525;51.152;4.456;2023-03-01T08:28:37;18.38;;;11.23;;
22715;SDS011;11525;51.152;4.456;2023-03-01T08:31:12;16.35;;;11.02;;
22715;SDS011;11525;51.152;4.456;2023-03-01T08:34:00;16.33;;;11.55;;
22715;SDS011;11525;51.152;4.456;2023-03-01T08:36:29;12.77;;;10.63;;
22715;SDS011;11525;51.152;4.456;2023-03-01T08:38:57;17.77;;;12.50;;
22715;SDS011;11525;51.152;4.456;2023-03-01T08:41:23;14.73;;;11.32;;
22715;SDS011;11525;51.152;4.456;2023-03-01T08:43:49;13.45;;;9.95;;
22715;SDS011;11525;51.152;4.456;2023-03-01T08:46:15;15.52;;;10.30;;
22715;SDS011;11525;51.152;4.456;2023-03-01T08:48:42;21.75;;;16.88;;
22715;SDS011;11525;51.152;4.456;2023-03-01T08:51:17;13.52;;;10.10;;
22715;SDS011;11525;51.152;4.456;2023-03-01T08:53:44;13.45;;;10.93;;
22715;SDS011;11525;51.152;4.456;2023-03-01T08:56:11;15.48;;;12.35;;
22715;SDS011;11525;51.152;4.456;2023-03-01T08:58:37;12.40;;;8.88;;
22715;SDS011;11525;51.152;4.456;2023-03-01T09:01:08;14.98;;;11.48;;
22715;SDS011;11525;51.152;4.456;2023-03-01T09:03:35;17.23;;;10.90;;
22715;SDS011;11525;51.152;4.456;2023-03-01T09:06:02;13.18;;;9.80;;
22715;SDS011;11525;51.152;4.456;2023-03-01T09:08:29;11.05;;;8.95;;
22715;SDS011;11525;51.152;4.456;2023-03-01T09:10:55;12.07;;;9.23;;
22715;SDS011;11525;51.152;4.456;2023-03-01T09:13:21;12.80;;;8.98;;
22715;SDS011;11525;51.152;4.456;2023-03-01T09:15:49;10.88;;;8.55;;
22715;SDS011;11525;51.152;4.456;2023-03-01T09:18:16;12.38;;;10.13;;
22715;SDS011;11525;51.152;4.456;2023-03-01T09:20:41;12.15;;;9.38;;
22715;SDS011;11525;51.152;4.456;2023-03-01T09:23:07;12.20;;;9.43;;
22715;SDS011;11525;51.152;4.456;2023-03-01T09:25:33;16.63;;;10.02;;
22715;SDS011;11525;51.152;4.456;2023-03-01T09:28:00;11.20;;;9.30;;
22715;SDS011;11525;51.152;4.456;2023-03-01T09:30:26;14.88;;;9.50;;
22715;SDS011;11525;51.152;4.456;2023-03-01T09:32:52;12.43;;;9.05;;
22715;SDS011;11525;51.152;4.456;2023-03-01T09:35:17;11.73;;;9.48;;
22715;SDS011;11525;51.152;4.456;2023-03-01T09:37:44;9.50;;;8.50;;
22715;SDS011;11525;51.152;4.456;2023-03-01T09:40:15;13.02;;;9.73;;
22715;SDS011;11525;51.152;4.456;2023-03-01T09:45:39;12.07;;;9.55;;
22715;SDS011;11525;51.152;4.456;2023-03-01T09:48:11;13.10;;;8.75;;
22715;SDS011;11525;51.152;4.456;2023-03-01T09:50:41;14.05;;;9.35;;
22715;SDS011;11525;51.152;4.456;2023-03-01T09:53:18;11.25;;;8.88;;
22715;SDS011;11525;51.152;4.456;2023-03-01T10:01:43;11.10;;;9.32;;
22715;SDS011;11525;51.152;4.456;2023-03-01T10:07:47;12.95;;;9.30;;
22715;SDS011;11525;51.152;4.456;2023-03-01T10:09:48;11.10;;;9.90;;
22715;SDS011;11525;51.152;4.456;2023-03-01T10:12:18;9.88;;;8.88;;
22715;SDS011;11525;51.152;4.456;2023-03-01T10:15:06;14.15;;;10.10;;
22715;SDS011;11525;51.152;4.456;2023-03-01T10:22:47;14.25;;;10.65;;
22715;SDS011;11525;51.152;4.456;2023-03-01T10:25:20;13.85;;;9.38;;
22715;SDS011;11525;51.152;4.456;2023-03-01T10:28:14;11.75;;;8.80;;
22715;SDS011;11525;51.152;4.456;2023-03-01T10:30:52;14.20;;;9.57;;
22715;SDS011;11525;51.152;4.456;2023-03-01T10:35:58;13.25;;;9.82;;
22715;SDS011;11525;51.152;4.456;2023-03-01T10:38:23;14.25;;;10.02;;
22715;SDS011;11525;51.152;4.456;2023-03-01T10:40:56;12.02;;;9.35;;
22715;SDS011;11525;51.152;4.456;2023-03-01T10:46:26;10.23;;;7.82;;
22715;SDS011;11525;51.152;4.456;2023-03-01T10:49:07;10.55;;;8.43;;
22715;SDS011;11525;51.152;4.456;2023-03-01T10:51:39;14.18;;;9.13;;
22715;SDS011;11525;51.152;4.456;2023-03-01T10:54:15;12.57;;;8.98;;
22715;SDS011;11525;51.152;4.456;2023-03-01T10:56:59;13.68;;;8.38;;
22715;SDS011;11525;51.152;4.456;2023-03-01T10:59:36;11.13;;;8.48;;
22715;SDS011;11525;51.152;4.456;2023-03-01T11:02:23;13.25;;;9.68;;
22715;SDS011;11525;51.152;4.456;2023-03-01T11:04:57;11.00;;;8.63;;
22715;SDS011;11525;51.152;4.456;2023-03-01T11:07:47;10.82;;;8.23;;
22715;SDS011;11525;51.152;4.456;2023-03-01T11:10:21;12.18;;;8.60;;
22715;SDS011;11525;51.152;4.456;2023-03-01T11:12:50;12.63;;;8.23;;
22715;SDS011;11525;51.152;4.456;2023-03-01T11:15:30;12.75;;;8.73;;
22715;SDS011;11525;51.152;4.456;2023-03-01T11:17:56;11.40;;;8.07;;
22715;SDS011;11525;51.152;4.456;2023-03-01T11:23:10;9.95;;;7.88;;
22715;SDS011;11525;51.152;4.456;2023-03-01T11:25:43;14.70;;;8.07;;
22715;SDS011;11525;51.152;4.456;2023-03-01T11:28:28;12.20;;;7.72;;
22715;SDS011;11525;51.152;4.456;2023-03-01T11:31:07;11.73;;;8.65;;
22715;SDS011;11525;51.152;4.456;2023-03-01T11:42:12;10.68;;;7.85;;
22715;SDS011;11525;51.152;4.456;2023-03-01T11:44:43;12.40;;;8.13;;
22715;SDS011;11525;51.152;4.456;2023-03-01T11:47:26;10.02;;;8.20;;
22715;SDS011;11525;51.152;4.456;2023-03-01T11:50:33;10.68;;;7.97;;
22715;SDS011;11525;51.152;4.456;2023-03-01T11:55:50;11.90;;;7.90;;
22715;SDS011;11525;51.152;4.456;2023-03-01T12:09:39;12.05;;;8.40;;
22715;SDS011;11525;51.152;4.456;2023-03-01T12:15:15;12.68;;;8.68;;
22715;SDS011;11525;51.152;4.456;2023-03-01T12:23:36;12.02;;;8.32;;
22715;SDS011;11525;51.152;4.456;2023-03-01T12:29:18;12.00;;;7.95;;
22715;SDS011;11525;51.152;4.456;2023-03-01T12:43:08;26.38;;;17.00;;
22715;SDS011;11525;51.152;4.456;2023-03-01T12:51:18;14.68;;;10.55;;
22715;SDS011;11525;51.152;4.456;2023-03-01T12:54:43;12.27;;;8.90;;
22715;SDS011;11525;51.152;4.456;2023-03-01T13:00:38;10.48;;;8.18;;
22715;SDS011;11525;51.152;4.456;2023-03-01T13:06:41;9.88;;;8.18;;
22715;SDS011;11525;51.152;4.456;2023-03-01T13:15:32;13.40;;;9.60;;
22715;SDS011;11525;51.152;4.456;2023-03-01T13:20:56;10.77;;;7.65;;
22715;SDS011;11525;51.152;4.456;2023-03-01T13:23:37;12.52;;;8.20;;
22715;SDS011;11525;51.152;4.456;2023-03-01T13:26:08;10.02;;;7.65;;
22715;SDS011;11525;51.152;4.456;2023-03-01T13:33:55;16.27;;;9.23;;
22715;SDS011;11525;51.152;4.456;2023-03-01T13:39:02;9.90;;;7.53;;
22715;SDS011;11525;51.152;4.456;2023-03-01T13:47:08;9.55;;;7.50;;
22715;SDS011;11525;51.152;4.456;2023-03-01T13:49:48;9.80;;;7.72;;
22715;SDS011;11525;51.152;4.456;2023-03-01T13:57:43;9.13;;;7.25;;
22715;SDS011;11525;51.152;4.456;2023-03-01T14:00:31;12.55;;;8.05;;
22715;SDS011;11525;51.152;4.456;2023-03-01T14:03:08;12.40;;;7.38;;
22715;SDS011;11525;51.152;4.456;2023-03-01T14:06:03;9.57;;;8.00;;
22715;SDS011;11525;51.152;4.456;2023-03-01T14:08:33;11.32;;;9.15;;
22715;SDS011;11525;51.152;4.456;2023-03-01T14:11:22;10.95;;;8.25;;
22715;SDS011;11525;51.152;4.456;2023-03-01T14:19:32;18.02;;;9.77;;
22715;SDS011;11525;51.152;4.456;2023-03-01T14:24:46;10.00;;;7.95;;
22715;SDS011;11525;51.152;4.456;2023-03-01T14:27:17;11.52;;;8.35;;
22715;SDS011;11525;51.152;4.456;2023-03-01T14:29:43;11.40;;;9.45;;
22715;SDS011;11525;51.152;4.456;2023-03-01T14:32:24;11.98;;;8.48;;
22715;SDS011;11525;51.152;4.456;2023-03-01T14:34:51;9.25;;;8.18;;
22715;SDS011;11525;51.152;4.456;2023-03-01T14:37:31;14.07;;;9.65;;
22715;SDS011;11525;51.152;4.456;2023-03-01T14:39:59;17.65;;;8.73;;
22715;SDS011;11525;51.152;4.456;2023-03-01T14:42:28;14.23;;;7.93;;
22715;SDS011;11525;51.152;4.456;2023-03-01T14:44:59;11.07;;;8.77;;
22715;SDS011;11525;51.152;4.456;2023-03-01T14:47:27;13.38;;;10.52;;
22715;SDS011;11525;51.152;4.456;2023-03-01T14:49:57;13.00;;;9.07;;
22715;SDS011;11525;51.152;4.456;2023-03-01T14:52:35;15.15;;;11.27;;
22715;SDS011;11525;51.152;4.456;2023-03-01T14:55:19;16.35;;;10.27;;
22715;SDS011;11525;51.152;4.456;2023-03-01T14:57:50;11.38;;;9.18;;
22715;SDS011;11525;51.152;4.456;2023-03-01T15:00:24;14.68;;;10.93;;
22715;SDS011;11525;51.152;4.456;2023-03-01T15:02:53;16.02;;;11.93;;
22715;SDS011;11525;51.152;4.456;2023-03-01T15:05:31;11.38;;;8.40;;
22715;SDS011;11525;51.152;4.456;2023-03-01T15:07:58;16.15;;;10.68;;
22715;SDS011;11525;51.152;4.456;2023-03-01T15:10:28;12.20;;;10.85;;
22715;SDS011;11525;51.152;4.456;2023-03-01T15:12:56;15.80;;;11.52;;
22715;SDS011;11525;51.152;4.456;2023-03-01T15:15:37;15.63;;;11.10;;
22715;SDS011;11525;51.152;4.456;2023-03-01T15:18:16;12.95;;;9.25;;
22715;SDS011;11525;51.152;4.456;2023-03-01T15:20:47;18.15;;;9.43;;
22715;SDS011;11525;51.152;4.456;2023-03-01T15:23:22;11.15;;;8.10;;
22715;SDS011;11525;51.152;4.456;2023-03-01T15:25:50;16.48;;;12.63;;
22715;SDS011;11525;51.152;4.456;2023-03-01T15:28:21;14.63;;;10.50;;
22715;SDS011;11525;51.152;4.456;2023-03-01T15:30:57;12.98;;;9.23;;
22715;SDS011;11525;51.152;4.456;2023-03-01T15:35:58;12.15;;;8.95;;
22715;SDS011;11525;51.152;4.456;2023-03-01T15:38:25;12.63;;;9.82;;
22715;SDS011;11525;51.152;4.456;2023-03-01T15:40:55;11.45;;;8.57;;
22715;SDS011;11525;51.152;4.456;2023-03-01T15:48:56;15.40;;;8.60;;
22715;SDS011;11525;51.152;4.456;2023-03-01T15:51:28;13.50;;;9.50;;
22715;SDS011;11525;51.152;4.456;2023-03-01T15:53:55;16.45;;;9.60;;
22715;SDS011;11525;51.152;4.456;2023-03-01T15:56:23;13.50;;;8.85;;
22715;SDS011;11525;51.152;4.456;2023-03-01T15:58:49;15.25;;;9.35;;
22715;SDS011;11525;51.152;4.456;2023-03-01T16:01:15;12.73;;;8.32;;
22715;SDS011;11525;51.152;4.456;2023-03-01T16:03:42;9.82;;;7.93;;
22715;SDS011;11525;51.152;4.456;2023-03-01T16:06:11;11.50;;;8.57;;
22715;SDS011;11525;51.152;4.456;2023-03-01T16:08:37;15.15;;;8.30;;
22715;SDS011;11525;51.152;4.456;2023-03-01T16:11:16;15.10;;;8.95;;
22715;SDS011;11525;51.152;4.456;2023-03-01T16:13:44;10.30;;;8.50;;
22715;SDS011;11525;51.152;4.456;2023-03-01T16:16:10;11.23;;;8.20;;
22715;SDS011;11525;51.152;4.456;2023-03-01T16:18:40;12.73;;;8.77;;
22715;SDS011;11525;51.152;4.456;2023-03-01T16:21:08;10.13;;;7.47;;
22715;SDS011;11525;51.152;4.456;2023-03-01T16:23:37;9.85;;;7.43;;
22715;SDS011;11525;51.152;4.456;2023-03-01T16:26:03;12.48;;;7.93;;
22715;SDS011;11525;51.152;4.456;2023-03-01T16:28:28;19.65;;;8.52;;
22715;SDS011;11525;51.152;4.456;2023-03-01T16:30:54;13.80;;;8.30;;
22715;SDS011;11525;51.152;4.456;2023-03-01T16:33:20;10.30;;;8.55;;
22715;SDS011;11525;51.152;4.456;2023-03-01T16:35:46;11.48;;;8.68;;
22715;SDS011;11525;51.152;4.456;2023-03-01T16:38:12;13.18;;;8.68;;
22715;SDS011;11525;51.152;4.456;2023-03-01T16:40:37;12.32;;;9.05;;
22715;SDS011;11525;51.152;4.456;2023-03-01T16:43:03;10.25;;;8.48;;
22715;SDS011;11525;51.152;4.456;2023-03-01T16:45:34;12.90;;;7.82;;
22715;SDS011;11525;51.152;4.456;2023-03-01T16:48:01;15.15;;;8.75;;
22715;SDS011;11525;51.152;4.456;2023-03-01T16:50:28;10.40;;;8.18;;
22715;SDS011;11525;51.152;4.456;2023-03-01T16:52:54;9.98;;;8.25;;
22715;SDS011;11525;51.152;4.456;2023-03-01T16:55:19;12.52;;;8.55;;
22715;SDS011;11525;51.152;4.456;2023-03-01T16:57:45;10.50;;;7.85;;
22715;SDS011;11525;51.152;4.456;2023-03-01T17:00:11;19.05;;;9.02;;
22715;SDS011;11525;51.152;4.456;2023-03-01T17:02:38;11.05;;;8.40;;
22715;SDS011;11525;51.152;4.456;2023-03-01T17:05:06;14.70;;;8.68;;